createdAt,value
2023-01-23T00:01:05.499Z,100.00
2023-01-23T00:03:33.463Z,100.00
2023-01-23T00:06:01.103Z,100.00
2023-01-23T00:08:29.440Z,100.00
2023-01-23T00:10:56.532Z,100.00
2023-01-23T00:13:23.563Z,100.00
2023-01-23T00:15:50.499Z,100.00
2023-01-23T00:18:17.774Z,100.00
2023-01-23T00:20:44.517Z,100.00
2023-01-23T00:23:12.597Z,100.00
2023-01-23T00:25:39.252Z,100.00
2023-01-23T00:28:06.694Z,100.00
2023-01-23T00:30:34.182Z,100.00
2023-01-23T00:33:01.184Z,100.00
2023-01-23T00:35:28.123Z,100.00
2023-01-23T00:37:55.323Z,100.00
2023-01-23T00:40:22.367Z,100.00
2023-01-23T00:42:49.215Z,100.00
2023-01-23T00:45:16.019Z,100.00
2023-01-23T00:47:42.778Z,100.00
2023-01-23T00:50:10.316Z,100.00
2023-01-23T00:52:37.081Z,100.00
2023-01-23T00:55:04.651Z,100.00
2023-01-23T00:57:31.839Z,100.00
2023-01-23T00:59:58.569Z,100.00
2023-01-23T01:02:25.469Z,100.00
2023-01-23T01:04:52.226Z,100.00
2023-01-23T01:07:18.966Z,100.00
2023-01-23T01:09:45.768Z,100.00
2023-01-23T01:12:12.541Z,100.00
2023-01-23T01:14:39.264Z,100.00
2023-01-23T01:17:05.959Z,100.00
2023-01-23T01:19:32.874Z,100.00
2023-01-23T01:21:59.696Z,100.00
2023-01-23T01:24:26.717Z,100.00
2023-01-23T01:26:53.706Z,100.00
2023-01-23T01:29:20.441Z,100.00
2023-01-23T01:31:47.199Z,100.00
2023-01-23T01:34:14.101Z,100.00
2023-01-23T01:36:40.929Z,100.00
2023-01-23T01:39:07.983Z,100.00
2023-01-23T01:41:35.971Z,100.00
2023-01-23T01:44:03.083Z,100.00
2023-01-23T01:46:32.450Z,100.00
2023-01-23T01:49:14.369Z,100.00
2023-01-23T01:51:53.481Z,100.00
2023-01-23T01:54:32.985Z,100.00
2023-01-23T01:57:30.900Z,100.00
2023-01-23T02:00:09.121Z,100.00
2023-01-23T02:02:40.765Z,100.00
2023-01-23T02:05:15.035Z,100.00
2023-01-23T02:07:56.960Z,100.00
2023-01-23T02:10:24.365Z,100.00
2023-01-23T02:12:52.503Z,100.00
2023-01-23T02:15:22.711Z,100.00
2023-01-23T02:17:52.452Z,100.00
2023-01-23T02:20:25.954Z,100.00
2023-01-23T02:23:09.011Z,100.00
2023-01-23T02:25:44.929Z,100.00
2023-01-23T02:28:13.063Z,100.00
2023-01-23T02:30:42.484Z,100.00
2023-01-23T02:33:21.230Z,100.00
2023-01-23T02:35:48.623Z,100.00
2023-01-23T02:38:15.781Z,100.00
2023-01-23T02:40:43.302Z,100.00
2023-01-23T02:43:14.571Z,100.00
2023-01-23T02:45:41.774Z,100.00
2023-01-23T02:48:09.071Z,100.00
2023-01-23T02:50:36.079Z,100.00
2023-01-23T02:53:03.009Z,100.00
2023-01-23T02:55:30.677Z,100.00
2023-01-23T02:58:20.457Z,100.00
2023-01-23T03:00:48.200Z,100.00
2023-01-23T03:03:16.154Z,100.00
2023-01-23T03:05:43.292Z,100.00
2023-01-23T03:08:10.090Z,100.00
2023-01-23T03:10:37.214Z,100.00
2023-01-23T03:13:07.586Z,100.00
2023-01-23T03:15:38.625Z,100.00
2023-01-23T03:18:09.841Z,100.00
2023-01-23T03:20:41.715Z,100.00
2023-01-23T03:23:09.837Z,100.00
2023-01-23T03:25:37.269Z,100.00
2023-01-23T03:28:04.301Z,100.00
2023-01-23T03:30:31.428Z,100.00
2023-01-23T03:32:58.554Z,100.00
2023-01-23T03:35:25.304Z,100.00
2023-01-23T03:37:52.581Z,100.00
2023-01-23T03:40:40.596Z,100.00
2023-01-23T03:43:07.564Z,100.00
2023-01-23T03:45:34.369Z,100.00
2023-01-23T03:48:01.230Z,100.00
2023-01-23T03:50:28.021Z,100.00
2023-01-23T03:52:54.852Z,100.00
2023-01-23T03:55:21.791Z,100.00
2023-01-23T03:57:48.564Z,100.00
2023-01-23T04:00:17.206Z,100.00
2023-01-23T04:02:44.020Z,100.00
2023-01-23T04:05:10.938Z,100.00
2023-01-23T04:07:37.846Z,100.00
2023-01-23T04:10:04.923Z,100.00
2023-01-23T04:12:31.816Z,100.00
2023-01-23T04:14:58.667Z,100.00
2023-01-23T04:17:25.476Z,100.00
2023-01-23T04:19:52.321Z,100.00
2023-01-23T04:22:19.375Z,100.00
2023-01-23T04:24:46.136Z,100.00
2023-01-23T04:27:12.806Z,100.00
2023-01-23T04:29:39.628Z,100.00
2023-01-23T04:32:08.773Z,100.00
2023-01-23T04:34:35.897Z,100.00
2023-01-23T04:37:02.550Z,100.00
2023-01-23T04:39:29.410Z,100.00
2023-01-23T04:41:56.396Z,100.00
2023-01-23T04:44:24.397Z,100.00
2023-01-23T04:46:55.753Z,100.00
2023-01-23T04:49:24.905Z,100.00
2023-01-23T04:51:52.279Z,100.00
2023-01-23T04:54:20.558Z,100.00
2023-01-23T04:56:48.209Z,100.00
2023-01-23T04:59:16.925Z,100.00
2023-01-23T05:01:44.779Z,100.00
2023-01-23T05:04:11.564Z,100.00
2023-01-23T05:06:38.342Z,100.00
2023-01-23T05:09:05.788Z,100.00
2023-01-23T05:11:33.202Z,100.00
2023-01-23T05:14:00.465Z,100.00
2023-01-23T05:16:27.362Z,100.00
2023-01-23T05:18:54.695Z,100.00
2023-01-23T05:21:21.522Z,100.00
2023-01-23T05:23:48.540Z,100.00
2023-01-23T05:26:15.561Z,100.00
2023-01-23T05:28:42.384Z,100.00
2023-01-23T05:31:09.483Z,100.00
2023-01-23T05:33:36.440Z,100.00
2023-01-23T05:36:06.921Z,100.00
2023-01-23T05:38:33.844Z,100.00
2023-01-23T05:41:01.322Z,100.00
2023-01-23T05:43:29.376Z,100.00
2023-01-23T05:45:59.359Z,100.00
2023-01-23T05:48:26.481Z,100.00
2023-01-23T05:50:53.596Z,100.00
2023-01-23T05:53:20.424Z,100.00
2023-01-23T05:55:47.704Z,100.00
2023-01-23T05:58:15.976Z,100.00
2023-01-23T06:00:42.980Z,100.00
2023-01-23T06:03:09.986Z,100.00
2023-01-23T06:05:36.792Z,100.00
2023-01-23T06:08:03.929Z,100.00
2023-01-23T06:10:30.773Z,100.00
2023-01-23T06:12:58.005Z,100.00
2023-01-23T06:15:25.337Z,100.00
2023-01-23T06:17:52.108Z,100.00
2023-01-23T06:20:19.843Z,100.00
2023-01-23T06:22:46.919Z,100.00
2023-01-23T06:25:13.753Z,100.00
2023-01-23T06:27:41.171Z,100.00
2023-01-23T06:30:08.710Z,100.00
2023-01-23T06:32:35.758Z,100.00
2023-01-23T06:35:02.778Z,100.00
2023-01-23T06:37:29.491Z,100.00
2023-01-23T06:39:56.404Z,100.00
2023-01-23T06:42:23.450Z,100.00
2023-01-23T06:44:50.362Z,100.00
2023-01-23T06:47:18.451Z,100.00
2023-01-23T06:49:45.261Z,100.00
2023-01-23T06:52:12.246Z,100.00
2023-01-23T06:54:38.927Z,100.00
2023-01-23T06:57:05.767Z,100.00
2023-01-23T06:59:35.800Z,100.00
2023-01-23T07:02:02.582Z,100.00
2023-01-23T07:04:29.367Z,100.00
2023-01-23T07:06:56.599Z,100.00
2023-01-23T07:09:23.422Z,100.00
2023-01-23T07:11:50.558Z,100.00
2023-01-23T07:14:20.483Z,100.00
2023-01-23T07:16:47.662Z,100.00
2023-01-23T07:19:14.382Z,100.00
2023-01-23T07:21:41.612Z,100.00
2023-01-23T07:24:08.496Z,100.00
2023-01-23T07:26:35.218Z,100.00
2023-01-23T07:29:02.056Z,100.00
2023-01-23T07:31:29.094Z,100.00
2023-01-23T07:33:55.897Z,100.00
2023-01-23T07:36:22.620Z,100.00
2023-01-23T07:38:49.384Z,100.00
2023-01-23T07:41:16.479Z,100.00
2023-01-23T07:43:43.859Z,100.00
2023-01-23T07:46:10.807Z,100.00
2023-01-23T07:48:38.167Z,100.00
2023-01-23T07:51:05.953Z,100.00
2023-01-23T07:53:32.917Z,100.00
2023-01-23T07:55:59.787Z,100.00
2023-01-23T07:58:26.847Z,100.00
2023-01-23T08:00:53.668Z,100.00
2023-01-23T08:03:21.306Z,100.00
2023-01-23T08:05:54.206Z,100.00
2023-01-23T08:08:21.098Z,100.00
2023-01-23T08:10:49.711Z,100.00
2023-01-23T08:13:17.679Z,100.00
2023-01-23T08:15:44.508Z,100.00
2023-01-23T08:18:11.428Z,100.00
2023-01-23T08:20:38.396Z,100.00
2023-01-23T08:23:05.223Z,100.00
2023-01-23T08:25:32.071Z,100.00
2023-01-23T08:27:59.508Z,100.00
2023-01-23T08:30:26.279Z,100.00
2023-01-23T08:32:53.199Z,100.00
2023-01-23T08:35:20.088Z,100.00
2023-01-23T08:37:46.868Z,100.00
2023-01-23T08:40:13.821Z,100.00
2023-01-23T08:42:40.793Z,100.00
2023-01-23T08:45:08.344Z,100.00
2023-01-23T08:47:37.007Z,100.00
2023-01-23T08:50:05.799Z,100.00
2023-01-23T08:52:34.801Z,100.00
2023-01-23T08:55:01.767Z,100.00
2023-01-23T08:57:28.517Z,100.00
2023-01-23T08:59:55.356Z,100.00
2023-01-23T09:02:22.321Z,100.00
2023-01-23T09:04:50.439Z,100.00
2023-01-23T09:07:17.166Z,100.00
2023-01-23T09:09:43.953Z,100.00
2023-01-23T09:12:10.972Z,100.00
2023-01-23T09:14:37.984Z,98.49
2023-01-23T09:17:05.714Z,99.99
2023-01-23T09:19:33.843Z,95.79
2023-01-23T09:22:00.596Z,97.13
2023-01-23T09:24:27.507Z,98.45
2023-01-23T09:26:54.295Z,96.68
2023-01-23T09:29:21.172Z,95.48
2023-01-23T09:31:47.951Z,95.62
2023-01-23T09:34:17.059Z,94.18
2023-01-23T09:36:44.410Z,94.57
2023-01-23T09:39:11.245Z,91.34
2023-01-23T09:41:39.504Z,89.78
2023-01-23T09:44:16.482Z,89.99
2023-01-23T09:46:53.408Z,89.95
2023-01-23T09:49:35.564Z,89.41
2023-01-23T09:52:12.746Z,89.25
2023-01-23T09:54:49.087Z,87.51
2023-01-23T09:57:21.302Z,88.46
2023-01-23T10:00:00.330Z,89.83
2023-01-23T10:02:28.918Z,88.14
2023-01-23T10:05:00.841Z,85.93
2023-01-23T10:07:36.807Z,87.83
2023-01-23T10:10:19.231Z,88.58
2023-01-23T10:13:09.539Z,86.88
2023-01-23T10:15:39.099Z,87.54
2023-01-23T10:18:24.959Z,87.33
2023-01-23T10:21:34.625Z,88.81
2023-01-23T10:24:24.697Z,87.78
2023-01-23T10:26:55.508Z,88.70
2023-01-23T10:29:38.407Z,88.98
2023-01-23T10:32:25.235Z,89.19
2023-01-23T10:35:21.466Z,88.70
2023-01-23T10:38:27.434Z,88.33
2023-01-23T10:41:25.953Z,89.07
2023-01-23T10:43:57.392Z,88.83
2023-01-23T10:46:40.818Z,88.94
2023-01-23T10:52:24.594Z,90.63
2023-01-23T10:54:51.784Z,90.53
2023-01-23T10:57:18.441Z,90.90
2023-01-23T11:00:05.405Z,91.13
2023-01-23T11:02:37.467Z,91.00
2023-01-23T11:05:51.850Z,90.21
2023-01-23T11:08:40.494Z,90.12
2023-01-23T11:11:16.011Z,90.50
2023-01-23T11:13:44.623Z,90.58
2023-01-23T11:16:21.140Z,89.75
2023-01-23T11:19:15.346Z,89.21
2023-01-23T11:22:00.593Z,89.36
2023-01-23T11:24:41.055Z,88.88
2023-01-23T11:27:26.712Z,87.49
2023-01-23T11:30:11.584Z,87.35
2023-01-23T11:32:59.522Z,87.46
2023-01-23T11:35:58.452Z,88.63
2023-01-23T11:38:42.100Z,87.69
2023-01-23T11:41:15.462Z,87.74
2023-01-23T11:43:42.657Z,89.18
2023-01-23T11:46:30.669Z,88.41
2023-01-23T11:49:06.611Z,88.37
2023-01-23T11:51:48.928Z,88.83
2023-01-23T11:54:48.292Z,89.18
2023-01-23T11:57:40.748Z,88.48
2023-01-23T12:00:13.589Z,88.41
2023-01-23T12:03:19.231Z,89.43
2023-01-23T12:06:23.416Z,89.28
2023-01-23T12:09:20.554Z,90.18
2023-01-23T12:12:12.258Z,91.73
2023-01-23T12:15:23.261Z,91.70
2023-01-23T12:17:55.893Z,92.59
2023-01-23T12:20:23.272Z,93.29
2023-01-23T12:23:08.765Z,92.32
2023-01-23T12:25:45.408Z,93.56
2023-01-23T12:28:36.744Z,94.39
2023-01-23T12:31:27.942Z,94.19
2023-01-23T12:34:00.959Z,93.81
2023-01-23T12:37:14.207Z,93.98
2023-01-23T12:40:12.827Z,93.19
2023-01-23T12:43:10.410Z,93.41
2023-01-23T12:45:39.252Z,93.17
2023-01-23T12:48:28.859Z,91.93
2023-01-23T12:51:19.311Z,90.95
2023-01-23T12:53:52.169Z,91.90
2023-01-23T12:56:27.637Z,91.49
2023-01-23T12:59:30.334Z,92.33
2023-01-23T13:02:12.385Z,91.38
2023-01-23T13:04:53.609Z,91.53
2023-01-23T13:07:35.662Z,92.54
2023-01-23T13:10:47.997Z,91.74
2023-01-23T13:13:50.896Z,91.29
2023-01-23T13:17:00.852Z,91.81
2023-01-23T13:20:27.933Z,89.81
2023-01-23T13:27:17.286Z,90.72
2023-01-23T13:29:50.604Z,90.58
2023-01-23T13:33:17.959Z,91.14
2023-01-23T13:35:58.660Z,90.96
2023-01-23T13:42:14.194Z,92.11
2023-01-23T13:45:36.511Z,90.87
2023-01-23T14:31:02.681Z,88.14
2023-01-23T14:33:40.528Z,87.55
2023-01-23T14:36:13.026Z,88.58
2023-01-23T14:38:42.339Z,87.90
2023-01-23T14:41:09.439Z,89.75
2023-01-23T14:43:37.676Z,89.85
2023-01-23T14:46:22.038Z,89.82
2023-01-23T14:48:55.412Z,92.27
2023-01-23T14:51:27.591Z,92.35
2023-01-23T14:54:00.591Z,93.11
2023-01-23T14:56:37.147Z,93.05
2023-01-23T15:03:41.999Z,93.49
2023-01-23T15:06:20.764Z,94.84
2023-01-23T15:21:52.846Z,96.89
2023-01-23T15:25:07.143Z,97.96
2023-01-23T15:35:55.799Z,98.36
2023-01-23T15:38:51.612Z,98.16
2023-01-23T15:41:33.791Z,99.54
2023-01-23T15:44:14.029Z,100.00
2023-01-23T15:47:35.060Z,100.00
2023-01-23T15:50:03.154Z,99.44
2023-01-23T15:52:45.653Z,100.00
2023-01-23T15:55:13.415Z,100.00
2023-01-23T15:57:43.366Z,100.00
2023-01-23T16:00:36.799Z,100.00
2023-01-23T16:03:04.056Z,100.00
2023-01-23T16:05:55.640Z,100.00
2023-01-23T16:08:31.556Z,100.00
2023-01-23T16:10:58.528Z,100.00
2023-01-23T16:13:25.559Z,100.00
2023-01-23T16:15:55.110Z,100.00
2023-01-23T16:18:50.452Z,100.00
2023-01-23T16:21:19.710Z,100.00
2023-01-23T16:23:47.925Z,100.00
2023-01-23T16:26:23.787Z,100.00
2023-01-23T16:28:55.348Z,100.00
2023-01-23T16:31:25.267Z,100.00
2023-01-23T16:33:56.085Z,100.00
2023-01-23T16:36:25.051Z,100.00
2023-01-23T16:38:57.960Z,100.00
2023-01-23T16:41:41.938Z,100.00
2023-01-23T16:59:39.375Z,100.00
2023-01-23T17:02:25.504Z,100.00
2023-01-23T17:04:52.456Z,100.00
2023-01-23T17:07:20.371Z,100.00
2023-01-23T17:09:49.407Z,100.00
2023-01-23T17:12:23.020Z,100.00
2023-01-23T17:14:52.807Z,100.00
2023-01-23T17:17:29.588Z,100.00
2023-01-23T17:19:57.753Z,100.00
2023-01-23T17:22:27.789Z,100.00
2023-01-23T17:24:56.212Z,100.00
2023-01-23T17:27:24.075Z,100.00
2023-01-23T17:29:51.287Z,100.00
2023-01-23T17:32:33.349Z,100.00
2023-01-23T17:35:03.329Z,100.00
2023-01-23T17:37:37.218Z,100.00
2023-01-23T17:40:17.538Z,100.00
2023-01-23T17:57:14.718Z,100.00
2023-01-23T17:59:56.734Z,100.00
2023-01-23T18:02:40.109Z,100.00
2023-01-23T18:05:14.294Z,100.00
2023-01-23T18:07:54.179Z,100.00
2023-01-23T18:13:35.594Z,100.00
2023-01-23T18:16:25.269Z,100.00
2023-01-23T18:19:00.067Z,100.00
2023-01-23T18:21:38.023Z,100.00
2023-01-23T18:24:08.467Z,100.00
2023-01-23T18:26:56.247Z,100.00
2023-01-23T18:29:23.195Z,100.00
2023-01-23T18:32:00.434Z,100.00
2023-01-23T18:34:44.494Z,100.00
2023-01-23T18:37:46.156Z,100.00
2023-01-23T18:43:16.749Z,100.00
2023-01-23T18:46:34.089Z,100.00
2023-01-23T18:49:42.897Z,100.00
2023-01-23T18:53:08.482Z,100.00
2023-01-23T19:27:58.955Z,100.00
2023-01-23T19:30:27.560Z,100.00
2023-01-23T19:32:58.852Z,100.00
2023-01-23T19:35:26.669Z,100.00
2023-01-23T19:37:53.537Z,100.00
2023-01-23T19:40:20.814Z,100.00
2023-01-23T19:42:58.469Z,100.00
2023-01-23T19:45:34.350Z,100.00
2023-01-23T19:48:01.677Z,100.00
2023-01-23T19:50:29.381Z,100.00
2023-01-23T19:52:57.206Z,100.00
2023-01-23T19:55:34.363Z,100.00
2023-01-23T19:58:02.743Z,100.00
2023-01-23T20:00:32.334Z,100.00
2023-01-23T20:03:01.450Z,100.00
2023-01-23T20:05:29.770Z,100.00
2023-01-23T20:07:58.240Z,100.00
2023-01-23T20:10:52.067Z,100.00
2023-01-23T20:13:19.964Z,99.74
2023-01-23T20:15:51.685Z,100.00
2023-01-23T20:18:19.382Z,100.00
2023-01-23T20:20:58.054Z,100.00
2023-01-23T20:23:27.193Z,100.00
2023-01-23T20:25:59.784Z,99.72
2023-01-23T20:28:28.342Z,100.00
2023-01-23T20:30:56.637Z,100.00
2023-01-23T20:33:25.403Z,100.00
2023-01-23T20:35:54.806Z,99.65
2023-01-23T20:38:27.157Z,99.15
2023-01-23T20:40:55.409Z,100.00
2023-01-23T20:43:24.317Z,100.00
2023-01-23T20:45:53.556Z,100.00
2023-01-23T20:48:21.801Z,100.00
2023-01-23T20:50:57.640Z,100.00
2023-01-23T20:53:31.823Z,100.00
2023-01-23T20:56:08.819Z,100.00
2023-01-23T20:58:59.514Z,99.85
2023-01-23T21:01:30.066Z,99.40
2023-01-23T21:03:57.772Z,99.98
2023-01-23T21:06:28.712Z,100.00
2023-01-23T21:08:58.408Z,100.00
2023-01-23T21:11:26.823Z,100.00
2023-01-23T21:13:55.160Z,99.42
2023-01-23T21:16:22.360Z,100.00
2023-01-23T21:18:49.977Z,99.64
2023-01-23T21:21:20.731Z,99.64
2023-01-23T21:23:49.751Z,99.31
2023-01-23T21:26:24.620Z,99.20
2023-01-23T21:28:54.198Z,98.93
2023-01-23T21:31:30.555Z,100.00
2023-01-23T21:34:01.565Z,100.00
2023-01-23T21:36:30.084Z,100.00
2023-01-23T21:38:57.439Z,100.00
2023-01-23T21:41:24.728Z,100.00
2023-01-23T21:43:51.906Z,99.61
2023-01-23T21:46:18.978Z,100.00
2023-01-23T21:48:46.049Z,100.00
2023-01-23T21:51:15.566Z,100.00
2023-01-23T21:53:44.863Z,100.00
2023-01-23T21:56:14.583Z,100.00
2023-01-23T21:58:44.842Z,100.00
2023-01-23T22:01:33.641Z,100.00
2023-01-23T22:04:05.840Z,100.00
2023-01-23T22:06:33.864Z,100.00
2023-01-23T22:13:11.827Z,100.00
2023-01-23T22:15:39.414Z,100.00
2023-01-23T22:18:06.228Z,100.00
2023-01-23T22:20:33.970Z,100.00
2023-01-23T22:23:01.402Z,100.00
2023-01-23T22:25:28.065Z,100.00
2023-01-23T22:27:54.933Z,100.00
2023-01-23T22:30:21.868Z,100.00
2023-01-23T22:32:48.505Z,100.00
2023-01-23T22:35:15.462Z,100.00
2023-01-23T22:37:43.819Z,100.00
2023-01-23T22:40:11.472Z,100.00
2023-01-23T22:42:38.316Z,100.00
2023-01-23T22:45:05.616Z,100.00
2023-01-23T22:47:32.705Z,100.00
2023-01-23T22:49:59.680Z,100.00
2023-01-23T22:52:27.009Z,100.00
2023-01-23T22:54:53.827Z,100.00
2023-01-23T22:57:20.480Z,100.00
2023-01-23T22:59:48.548Z,100.00
2023-01-23T23:02:16.121Z,100.00
2023-01-23T23:04:42.950Z,100.00
2023-01-23T23:07:10.858Z,100.00
2023-01-23T23:09:37.757Z,100.00
2023-01-23T23:12:04.636Z,100.00
2023-01-23T23:14:31.525Z,100.00
2023-01-23T23:16:58.502Z,100.00
2023-01-23T23:19:25.948Z,100.00
2023-01-23T23:21:52.730Z,100.00
2023-01-23T23:24:19.958Z,100.00
2023-01-23T23:26:48.160Z,100.00
2023-01-23T23:29:16.046Z,100.00
2023-01-23T23:31:43.099Z,100.00
2023-01-23T23:34:12.677Z,100.00
2023-01-23T23:36:39.742Z,100.00
2023-01-23T23:39:06.449Z,100.00
2023-01-23T23:41:33.492Z,100.00
2023-01-23T23:44:00.508Z,100.00
2023-01-23T23:46:27.375Z,100.00
2023-01-23T23:48:57.313Z,100.00
2023-01-23T23:51:26.689Z,100.00
2023-01-23T23:53:53.711Z,100.00
2023-01-23T23:56:23.860Z,100.00
2023-01-23T23:58:51.451Z,100.00
